Time;durP1;ratioP1;P1;durP2;ratioP2;P2;SDS_P1;SDS_P2;PMS_P1;PMS_P2;Temp;Humidity;BMP_temperature;BMP_pressure;BME280_temperature;BME280_humidity;BME280_pressure;Samples;Min_cycle;Max_cycle;Signal;HPM_P1;HPM_P2
2021/12/02 00:01:56;;;;;;;8.52;1.15;;;;;;;;;;5110335;27;45945;-83
2021/12/02 00:04:22;;;;;;;15.13;1.60;;;;;;;;;;5103136;27;43158;-82
2021/12/02 00:06:49;;;;;;;9.07;1.27;;;;;;;;;;5090940;28;44676;-83
2021/12/02 00:09:16;;;;;;;15.00;1.33;;;;;;;;;;5090447;28;44964;-83
2021/12/02 00:11:42;;;;;;;6.85;1.13;;;;;;;;;;5090556;28;42923;-82
2021/12/02 00:14:11;;;;;;;12.10;1.73;;;;;;;;;;5091210;28;44612;-82
2021/12/02 00:16:40;;;;;;;9.77;1.15;;;;;;;;;;5090231;28;43969;-82
2021/12/02 00:22:00;;;;;;;4.38;0.90;;;;;;;;;;5090504;28;45021;-82
2021/12/02 00:24:30;;;;;;;7.65;0.90;;;;;;;;;;5090464;28;43471;-82
2021/12/02 00:26:57;;;;;;;3.83;0.75;;;;;;;;;;5090476;28;42624;-82
2021/12/02 00:29:24;;;;;;;9.15;0.90;;;;;;;;;;5090676;28;43727;-82
2021/12/02 00:31:51;;;;;;;5.75;0.73;;;;;;;;;;5089747;28;43921;-82
2021/12/02 00:34:19;;;;;;;8.20;0.90;;;;;;;;;;5090890;28;44753;-82
2021/12/02 00:36:46;;;;;;;2.95;0.90;;;;;;;;;;5090349;28;43924;-83
2021/12/02 00:39:15;;;;;;;5.55;0.80;;;;;;;;;;5089758;28;44874;-82
2021/12/02 00:41:43;;;;;;;12.27;1.13;;;;;;;;;;5093844;28;44668;-82
2021/12/02 00:44:10;;;;;;;12.88;1.35;;;;;;;;;;5110313;27;42886;-82
2021/12/02 00:46:37;;;;;;;6.57;1.30;;;;;;;;;;5110275;27;42324;-82
2021/12/02 00:49:04;;;;;;;5.25;1.10;;;;;;;;;;5110867;27;45200;-82
2021/12/02 00:51:32;;;;;;;11.25;1.27;;;;;;;;;;5109364;27;43509;-82
2021/12/02 00:54:00;;;;;;;5.90;1.13;;;;;;;;;;5110920;27;43617;-82
2021/12/02 00:56:27;;;;;;;13.95;1.30;;;;;;;;;;5110572;27;43813;-82
2021/12/02 00:58:54;;;;;;;7.03;1.00;;;;;;;;;;5109824;27;43938;-82
2021/12/02 01:01:23;;;;;;;6.47;0.85;;;;;;;;;;5110545;27;44717;-82
2021/12/02 01:03:53;;;;;;;6.75;0.80;;;;;;;;;;5106967;27;43925;-82
2021/12/02 01:06:20;;;;;;;3.95;0.77;;;;;;;;;;5089366;28;42644;-82
2021/12/02 01:08:47;;;;;;;6.97;0.80;;;;;;;;;;5089993;28;43925;-83
2021/12/02 01:11:14;;;;;;;8.23;0.70;;;;;;;;;;5089853;28;42968;-82
2021/12/02 01:13:41;;;;;;;9.35;1.13;;;;;;;;;;5089454;28;42715;-82
2021/12/02 01:16:08;;;;;;;3.72;1.10;;;;;;;;;;5089447;28;44891;-83
2021/12/02 01:18:34;;;;;;;4.80;1.00;;;;;;;;;;5089640;28;44005;-83
2021/12/02 01:21:02;;;;;;;2.78;0.65;;;;;;;;;;5089751;28;44629;-84
2021/12/02 01:23:29;;;;;;;8.07;0.93;;;;;;;;;;5089758;28;44901;-84
2021/12/02 01:26:04;;;;;;;5.77;0.87;;;;;;;;;;5090197;28;43844;-84
2021/12/02 01:28:31;;;;;;;4.65;0.70;;;;;;;;;;5089025;28;44888;-84
2021/12/02 01:30:58;;;;;;;6.85;1.00;;;;;;;;;;5090296;28;44973;-84
2021/12/02 01:33:26;;;;;;;6.32;0.68;;;;;;;;;;5089134;28;44728;-84
2021/12/02 01:35:57;;;;;;;2.08;0.68;;;;;;;;;;5089941;28;45082;-84
2021/12/02 01:38:24;;;;;;;4.78;0.60;;;;;;;;;;5089122;28;44837;-83
2021/12/02 01:40:51;;;;;;;7.97;0.60;;;;;;;;;;5088952;28;44761;-84
2021/12/02 01:43:19;;;;;;;12.65;1.10;;;;;;;;;;5106084;28;44161;-83
2021/12/02 01:45:46;;;;;;;;;;;;;;;;;;5111424;27;44991;-84
2021/12/02 01:48:22;;;;;;;2.88;0.60;;;;;;;;;;5110153;27;43370;-84
2021/12/02 01:50:59;;;;;;;4.93;0.93;;;;;;;;;;5110508;27;43070;-83
2021/12/02 01:53:29;;;;;;;5.10;1.08;;;;;;;;;;5109712;27;44729;-83
2021/12/02 01:56:09;;;;;;;1.73;0.52;;;;;;;;;;5109606;27;44027;-83
2021/12/02 01:58:44;;;;;;;3.80;0.60;;;;;;;;;;5109395;27;44902;-83
2021/12/02 02:01:13;;;;;;;7.88;0.60;;;;;;;;;;5110000;27;43632;-83
2021/12/02 02:03:41;;;;;;;6.70;0.88;;;;;;;;;;5106375;27;43908;-84
2021/12/02 02:06:08;;;;;;;19.08;1.00;;;;;;;;;;5089110;28;44775;-85
2021/12/02 02:08:37;;;;;;;11.73;1.10;;;;;;;;;;5088210;28;45653;-84
2021/12/02 02:11:03;;;;;;;;;;;;;;;;;;5090872;28;44960;-84
2021/12/02 02:13:30;;;;;;;5.57;0.70;;;;;;;;;;5088962;28;43411;-84
2021/12/02 02:15:57;;;;;;;8.80;1.23;;;;;;;;;;5088931;28;44992;-84
2021/12/02 02:18:24;;;;;;;8.68;0.70;;;;;;;;;;5089134;28;45072;-84
2021/12/02 02:21:03;;;;;;;9.53;1.17;;;;;;;;;;5090292;28;43544;-84
2021/12/02 02:23:31;;;;;;;4.93;0.57;;;;;;;;;;5092343;28;45029;-84
2021/12/02 02:25:58;;;;;;;7.93;0.70;;;;;;;;;;5092999;28;42871;-84
2021/12/02 02:28:26;;;;;;;4.45;0.75;;;;;;;;;;5092727;28;43640;-84
2021/12/02 02:30:52;;;;;;;6.35;0.63;;;;;;;;;;5091795;28;45969;-84
2021/12/02 02:33:20;;;;;;;9.13;0.88;;;;;;;;;;5092306;28;43596;-85
2021/12/02 02:35:48;;;;;;;5.03;1.02;;;;;;;;;;5092573;28;42918;-84
2021/12/02 02:38:15;;;;;;;13.38;0.80;;;;;;;;;;5091695;28;43938;-85
2021/12/02 02:40:45;;;;;;;4.78;0.80;;;;;;;;;;5092263;28;43631;-85
2021/12/02 02:43:20;;;;;;;3.75;0.90;;;;;;;;;;5107757;28;43556;-85
2021/12/02 02:45:48;;;;;;;5.78;0.95;;;;;;;;;;5113830;27;20542;-86
2021/12/02 02:48:15;;;;;;;8.55;0.77;;;;;;;;;;5112672;27;44807;-85
2021/12/02 02:50:42;;;;;;;10.85;1.08;;;;;;;;;;5112378;27;45038;-85
2021/12/02 02:53:16;;;;;;;4.03;0.70;;;;;;;;;;5112703;27;43466;-85
2021/12/02 02:55:50;;;;;;;6.88;1.08;;;;;;;;;;5112166;27;44911;-84
2021/12/02 02:58:47;;;;;;;9.43;1.25;;;;;;;;;;5111879;27;42902;-84
2021/12/02 03:11:51;;;;;;;10.30;0.95;;;;;;;;;;5080337;28;44863;-85
2021/12/02 03:14:23;;;;;;;15.65;1.50;;;;;;;;;;5092039;28;42975;-85
2021/12/02 03:16:50;;;;;;;7.10;1.23;;;;;;;;;;5092048;28;44741;-85
2021/12/02 03:19:42;;;;;;;7.30;1.15;;;;;;;;;;5091500;28;42841;-85
2021/12/02 03:22:10;;;;;;;15.57;1.30;;;;;;;;;;5088961;28;43628;-85
2021/12/02 03:24:37;;;;;;;12.27;1.50;;;;;;;;;;5091905;28;43538;-85
2021/12/02 03:27:04;;;;;;;18.67;1.98;;;;;;;;;;5091409;28;44917;-85
2021/12/02 03:29:31;;;;;;;6.10;1.55;;;;;;;;;;5091809;28;43795;-85
2021/12/02 03:31:58;;;;;;;4.85;1.23;;;;;;;;;;5090844;28;43922;-84
2021/12/02 03:34:24;;;;;;;10.00;1.10;;;;;;;;;;5090278;28;44899;-85
2021/12/02 03:36:52;;;;;;;6.05;0.80;;;;;;;;;;5091723;28;44735;-85
2021/12/02 03:39:19;;;;;;;4.80;0.90;;;;;;;;;;5091634;28;44972;-85
2021/12/02 03:41:46;;;;;;;10.55;1.10;;;;;;;;;;5094334;28;43681;-85
2021/12/02 03:44:13;;;;;;;7.82;1.60;;;;;;;;;;5112116;27;43970;-85
2021/12/02 03:46:40;;;;;;;11.38;1.27;;;;;;;;;;5110930;27;44779;-85
2021/12/02 03:49:07;;;;;;;11.13;0.93;;;;;;;;;;5110939;27;45661;-85
2021/12/02 03:51:33;;;;;;;10.32;1.10;;;;;;;;;;5111802;27;42991;-85
2021/12/02 03:54:00;;;;;;;5.22;0.98;;;;;;;;;;5111398;27;43882;-85
2021/12/02 03:56:27;;;;;;;10.35;1.08;;;;;;;;;;5111539;27;43406;-84
2021/12/02 03:58:54;;;;;;;6.25;0.80;;;;;;;;;;5111683;27;43642;-85
2021/12/02 04:01:21;;;;;;;6.68;0.70;;;;;;;;;;5111351;27;43889;-84
2021/12/02 04:03:48;;;;;;;5.10;0.60;;;;;;;;;;5107216;27;45110;-84
2021/12/02 04:06:15;;;;;;;18.42;1.17;;;;;;;;;;5090980;28;44859;-84
2021/12/02 04:13:56;;;;;;;9.45;1.10;;;;;;;;;;5090387;28;44820;-85
2021/12/02 04:16:23;;;;;;;22.58;1.30;;;;;;;;;;5090420;28;44693;-86
2021/12/02 04:18:50;;;;;;;9.52;1.20;;;;;;;;;;5091147;28;43941;-86
2021/12/02 04:21:17;;;;;;;4.35;0.70;;;;;;;;;;5090882;28;45280;-86
2021/12/02 04:23:44;;;;;;;5.47;0.75;;;;;;;;;;5090445;28;42706;-86
2021/12/02 04:26:11;;;;;;;5.47;0.65;;;;;;;;;;5090330;28;44031;-86
2021/12/02 04:28:37;;;;;;;11.45;1.10;;;;;;;;;;5090470;28;42617;-85
2021/12/02 04:31:04;;;;;;;4.32;0.60;;;;;;;;;;5090118;28;42852;-85
2021/12/02 04:33:31;;;;;;;11.50;1.00;;;;;;;;;;5090748;28;45205;-85
2021/12/02 04:35:58;;;;;;;6.13;0.63;;;;;;;;;;5090025;28;44563;-85
2021/12/02 04:38:25;;;;;;;7.88;0.80;;;;;;;;;;5089125;28;44965;-84
2021/12/02 04:40:52;;;;;;;9.60;0.90;;;;;;;;;;5090725;28;42859;-84
2021/12/02 04:43:18;;;;;;;15.77;0.90;;;;;;;;;;5106360;28;43305;-85
2021/12/02 04:45:46;;;;;;;6.73;0.63;;;;;;;;;;5109966;27;45003;-86
2021/12/02 04:48:14;;;;;;;7.75;1.42;;;;;;;;;;5110529;27;44761;-86
2021/12/02 04:50:41;;;;;;;6.68;0.77;;;;;;;;;;5110220;27;44966;-86
2021/12/02 04:53:08;;;;;;;5.68;0.82;;;;;;;;;;5110274;27;44943;-86
2021/12/02 04:55:34;;;;;;;11.77;1.48;;;;;;;;;;5110885;27;42647;-86
2021/12/02 04:58:01;;;;;;;7.15;0.73;;;;;;;;;;5108893;27;43625;-86
2021/12/02 05:00:27;;;;;;;3.63;0.50;;;;;;;;;;5107756;27;42683;-86
2021/12/02 05:02:54;;;;;;;10.10;0.70;;;;;;;;;;5108724;27;45634;-86
2021/12/02 05:05:23;;;;;;;16.55;1.00;;;;;;;;;;5091895;27;43078;-85
2021/12/02 05:07:53;;;;;;;8.23;0.80;;;;;;;;;;5089004;28;43971;-85
2021/12/02 05:10:20;;;;;;;7.80;1.02;;;;;;;;;;5090424;28;44870;-85
2021/12/02 05:12:47;;;;;;;11.35;0.90;;;;;;;;;;5089975;28;45248;-85
2021/12/02 05:15:14;;;;;;;5.35;0.65;;;;;;;;;;5090404;28;44425;-84
2021/12/02 05:17:40;;;;;;;4.28;0.50;;;;;;;;;;5090317;28;42768;-85
2021/12/02 05:20:08;;;;;;;7.13;0.50;;;;;;;;;;5089531;28;42889;-84
2021/12/02 05:22:34;;;;;;;3.90;0.70;;;;;;;;;;5090177;28;42668;-84
2021/12/02 05:25:02;;;;;;;4.30;0.63;;;;;;;;;;5089670;28;43630;-84
2021/12/02 05:27:29;;;;;;;6.25;0.63;;;;;;;;;;5090647;28;20914;-85
2021/12/02 05:29:56;;;;;;;4.50;0.70;;;;;;;;;;5090192;28;44984;-85
2021/12/02 05:32:22;;;;;;;3.30;0.65;;;;;;;;;;5089794;28;44912;-84
2021/12/02 05:34:49;;;;;;;15.63;0.90;;;;;;;;;;5089616;28;44679;-85
2021/12/02 05:37:20;;;;;;;7.78;0.77;;;;;;;;;;5089844;28;44156;-85
2021/12/02 05:39:47;;;;;;;15.57;1.10;;;;;;;;;;5089048;28;42700;-86
2021/12/02 05:42:13;;;;;;;8.80;1.13;;;;;;;;;;5097297;28;42847;-87
2021/12/02 05:44:40;;;;;;;5.18;0.63;;;;;;;;;;5110184;27;43134;-86
2021/12/02 05:47:07;;;;;;;6.22;0.63;;;;;;;;;;5109212;27;43910;-87
2021/12/02 05:49:34;;;;;;;4.90;0.70;;;;;;;;;;5110063;27;42950;-86
2021/12/02 05:52:00;;;;;;;4.43;0.55;;;;;;;;;;5110170;27;43919;-86
2021/12/02 05:54:27;;;;;;;8.93;0.82;;;;;;;;;;5109493;27;42645;-86
2021/12/02 05:56:54;;;;;;;4.50;0.80;;;;;;;;;;5112453;27;44909;-86
2021/12/02 05:59:20;;;;;;;7.03;0.70;;;;;;;;;;5113420;27;42910;-85
2021/12/02 06:01:47;;;;;;;5.78;0.73;;;;;;;;;;5112972;27;44734;-86
2021/12/02 06:04:14;;;;;;;6.82;1.05;;;;;;;;;;5106442;27;43935;-85
2021/12/02 06:06:42;;;;;;;11.75;1.00;;;;;;;;;;5093145;28;45677;-85
2021/12/02 06:09:08;;;;;;;11.70;1.10;;;;;;;;;;5092508;28;42660;-84
2021/12/02 06:11:40;;;;;;;8.38;1.05;;;;;;;;;;5093166;28;42917;-85
2021/12/02 06:14:07;;;;;;;8.02;0.90;;;;;;;;;;5092414;28;44958;-84
2021/12/02 06:16:33;;;;;;;11.35;0.93;;;;;;;;;;5092312;28;44924;-84
2021/12/02 06:19:00;;;;;;;4.05;0.88;;;;;;;;;;5092540;28;42831;-84
2021/12/02 06:21:27;;;;;;;9.60;1.13;;;;;;;;;;5092829;28;44624;-84
2021/12/02 06:23:53;;;;;;;7.75;0.90;;;;;;;;;;5091993;28;43886;-84
2021/12/02 06:26:20;;;;;;;5.35;0.90;;;;;;;;;;5092704;28;42885;-84
2021/12/02 06:28:47;;;;;;;5.03;0.85;;;;;;;;;;5091768;28;42669;-84
2021/12/02 06:31:14;;;;;;;1.98;0.80;;;;;;;;;;5092937;28;44918;-84
2021/12/02 06:33:40;;;;;;;20.17;1.27;;;;;;;;;;5092647;28;42618;-84
2021/12/02 06:36:07;;;;;;;5.82;0.90;;;;;;;;;;5091813;28;42934;-84
2021/12/02 06:38:48;;;;;;;12.23;0.98;;;;;;;;;;5091774;28;43479;-84
2021/12/02 06:41:16;;;;;;;1.83;0.80;;;;;;;;;;5092484;28;44561;-84
2021/12/02 06:43:42;;;;;;;4.10;0.85;;;;;;;;;;5111755;28;44928;-84
2021/12/02 06:46:09;;;;;;;7.20;1.15;;;;;;;;;;5112731;27;44818;-84
2021/12/02 06:48:36;;;;;;;5.68;1.27;;;;;;;;;;5112978;27;45037;-84
2021/12/02 06:51:03;;;;;;;23.65;2.05;;;;;;;;;;5111986;27;45365;-84
2021/12/02 06:53:29;;;;;;;3.00;0.93;;;;;;;;;;5113039;27;44182;-84
2021/12/02 06:55:56;;;;;;;20.80;1.88;;;;;;;;;;5112638;27;44910;-84
2021/12/02 06:58:23;;;;;;;14.80;1.52;;;;;;;;;;5111803;27;43845;-84
2021/12/02 07:00:50;;;;;;;10.15;1.65;;;;;;;;;;5112841;27;45087;-84
2021/12/02 07:03:16;;;;;;;8.93;1.30;;;;;;;;;;5111743;27;45961;-84
2021/12/02 07:05:44;;;;;;;9.15;1.75;;;;;;;;;;5092281;27;42905;-84
2021/12/02 07:08:11;;;;;;;10.82;1.50;;;;;;;;;;5091902;28;43569;-84
2021/12/02 07:10:40;;;;;;;6.70;1.42;;;;;;;;;;5091970;28;44051;-83
2021/12/02 07:13:07;;;;;;;7.90;1.80;;;;;;;;;;5091490;28;42911;-83
2021/12/02 07:15:41;;;;;;;9.68;1.95;;;;;;;;;;5092533;28;44528;-84
2021/12/02 07:18:14;;;;;;;11.07;2.00;;;;;;;;;;5091575;28;43052;-83
2021/12/02 07:20:43;;;;;;;12.27;2.38;;;;;;;;;;5091980;28;44850;-83
2021/12/02 07:23:10;;;;;;;13.38;2.80;;;;;;;;;;5091595;28;44993;-84
2021/12/02 07:25:40;;;;;;;4.57;2.10;;;;;;;;;;5091426;28;42528;-85
2021/12/02 07:28:10;;;;;;;6.35;1.77;;;;;;;;;;5091376;28;44712;-86
2021/12/02 07:30:37;;;;;;;5.97;1.35;;;;;;;;;;5091903;28;45024;-85
2021/12/02 07:33:06;;;;;;;6.50;1.25;;;;;;;;;;5091478;28;42037;-85
2021/12/02 07:35:32;;;;;;;11.63;1.42;;;;;;;;;;5091871;28;43919;-85
2021/12/02 07:38:00;;;;;;;9.82;1.40;;;;;;;;;;5091930;28;44990;-84
2021/12/02 07:40:28;;;;;;;11.37;1.60;;;;;;;;;;5090731;28;43627;-84
2021/12/02 07:42:55;;;;;;;6.73;1.10;;;;;;;;;;5104702;28;44881;-84
2021/12/02 07:45:23;;;;;;;11.02;1.95;;;;;;;;;;5112057;27;44993;-84
2021/12/02 07:47:50;;;;;;;16.13;2.95;;;;;;;;;;5112006;27;44643;-84
2021/12/02 07:50:18;;;;;;;10.95;1.17;;;;;;;;;;5111857;27;42385;-84
2021/12/02 07:52:49;;;;;;;7.20;1.58;;;;;;;;;;5111114;27;43068;-85
2021/12/02 07:55:16;;;;;;;8.63;1.55;;;;;;;;;;5111498;27;43563;-85
2021/12/02 07:57:44;;;;;;;9.35;1.42;;;;;;;;;;5111749;27;45152;-85
2021/12/02 08:00:11;;;;;;;6.28;1.98;;;;;;;;;;5111764;27;44843;-85
2021/12/02 08:02:41;;;;;;;12.57;2.05;;;;;;;;;;5111699;27;44936;-85
2021/12/02 08:05:08;;;;;;;7.82;2.03;;;;;;;;;;5097216;27;43340;-85
2021/12/02 08:07:38;;;;;;;10.20;1.83;;;;;;;;;;5089928;28;44716;-85
2021/12/02 08:10:09;;;;;;;6.93;2.35;;;;;;;;;;5091253;28;45139;-85
2021/12/02 08:12:37;;;;;;;4.82;1.95;;;;;;;;;;5091253;28;42716;-84
2021/12/02 08:15:05;;;;;;;6.18;1.77;;;;;;;;;;5090708;28;45055;-84
2021/12/02 08:17:32;;;;;;;3.92;1.50;;;;;;;;;;5090255;28;45217;-84
2021/12/02 08:19:59;;;;;;;10.98;1.67;;;;;;;;;;5090633;28;43895;-84
2021/12/02 08:22:25;;;;;;;4.95;1.80;;;;;;;;;;5090424;28;44335;-84
2021/12/02 08:24:52;;;;;;;7.78;1.73;;;;;;;;;;5091183;28;44874;-84
2021/12/02 08:27:19;;;;;;;3.50;1.50;;;;;;;;;;5090972;28;43612;-84
2021/12/02 08:29:46;;;;;;;4.60;1.60;;;;;;;;;;5090362;28;42978;-84
2021/12/02 08:32:13;;;;;;;7.60;1.73;;;;;;;;;;5091260;28;44911;-84
2021/12/02 08:34:40;;;;;;;12.85;1.95;;;;;;;;;;5090452;28;43554;-84
2021/12/02 08:37:09;;;;;;;3.25;1.35;;;;;;;;;;5089706;28;42947;-84
2021/12/02 08:39:36;;;;;;;9.52;2.47;;;;;;;;;;5090132;28;43934;-84
2021/12/02 08:42:04;;;;;;;5.07;1.73;;;;;;;;;;5096568;28;44705;-84
2021/12/02 08:44:32;;;;;;;7.83;2.00;;;;;;;;;;5110579;27;43789;-85
2021/12/02 08:46:58;;;;;;;4.18;2.13;;;;;;;;;;5110847;27;44708;-84
2021/12/02 08:49:25;;;;;;;2.13;1.60;;;;;;;;;;5110209;27;43001;-84
2021/12/02 08:51:52;;;;;;;7.53;2.08;;;;;;;;;;5110755;27;42888;-86
2021/12/02 08:54:19;;;;;;;6.78;1.80;;;;;;;;;;5110624;27;42612;-87
2021/12/02 08:56:45;;;;;;;5.90;1.27;;;;;;;;;;5108114;27;44953;-86
2021/12/02 08:59:13;;;;;;;7.35;1.40;;;;;;;;;;5108926;27;43923;-86
2021/12/02 09:01:40;;;;;;;5.20;1.00;;;;;;;;;;5109979;27;43822;-86
2021/12/02 09:04:08;;;;;;;11.40;1.70;;;;;;;;;;5102032;27;43971;-86
2021/12/02 09:06:34;;;;;;;7.32;1.42;;;;;;;;;;5109226;27;43618;-88
2021/12/02 09:09:02;;;;;;;3.78;1.42;;;;;;;;;;5109804;27;43005;-88
2021/12/02 09:11:30;;;;;;;8.75;1.50;;;;;;;;;;5109076;27;44837;-88
2021/12/02 09:13:58;;;;;;;8.38;1.40;;;;;;;;;;5109034;27;45088;-87
2021/12/02 09:16:25;;;;;;;6.90;1.23;;;;;;;;;;5109833;27;43125;-87
2021/12/02 09:18:54;;;;;;;3.95;1.17;;;;;;;;;;5110121;27;43985;-85
2021/12/02 09:21:21;;;;;;;6.93;1.27;;;;;;;;;;5109383;27;39620;-87
2021/12/02 09:23:47;;;;;;;6.93;1.35;;;;;;;;;;5110763;27;43601;-89
2021/12/02 09:26:14;;;;;;;6.50;1.20;;;;;;;;;;5109965;27;42887;-89
2021/12/02 09:28:41;;;;;;;8.10;1.50;;;;;;;;;;5110445;27;41586;-85
2021/12/02 09:31:08;;;;;;;11.30;1.67;;;;;;;;;;5111062;27;44309;-88
2021/12/02 09:33:35;;;;;;;33.50;2.92;;;;;;;;;;5113562;27;44683;-88
2021/12/02 09:36:02;;;;;;;6.72;1.65;;;;;;;;;;5114030;27;42901;-87
2021/12/02 09:38:28;;;;;;;5.72;1.20;;;;;;;;;;5113586;27;42711;-85
2021/12/02 09:40:55;;;;;;;5.88;0.95;;;;;;;;;;5113627;27;42615;-89
2021/12/02 09:43:22;;;;;;;16.95;1.48;;;;;;;;;;5096398;27;45023;-90
2021/12/02 09:45:48;;;;;;;2.83;0.70;;;;;;;;;;5094389;28;42368;-88
2021/12/02 09:48:15;;;;;;;3.63;1.10;;;;;;;;;;5112765;27;44697;-83
2021/12/02 09:51:06;;;;;;;28.67;2.47;;;;;;;;;;5112703;27;44868;-84
2021/12/02 09:53:56;;;;;;;12.68;1.05;;;;;;;;;;5109719;28;45130;-84
2021/12/02 09:56:27;;;;;;;6.90;1.20;;;;;;;;;;5108602;28;46289;-84
2021/12/02 09:58:56;;;;;;;4.97;0.85;;;;;;;;;;5112238;27;43868;-84
2021/12/02 10:01:34;;;;;;;3.78;0.98;;;;;;;;;;5108512;28;44722;-84
2021/12/02 10:04:03;;;;;;;4.07;0.75;;;;;;;;;;5111115;27;43335;-84
2021/12/02 10:06:31;;;;;;;2.38;1.08;;;;;;;;;;5109078;28;42887;-84
2021/12/02 10:09:10;;;;;;;5.22;0.90;;;;;;;;;;5110689;27;43573;-85
2021/12/02 10:11:38;;;;;;;4.38;0.88;;;;;;;;;;5109851;28;44009;-83
2021/12/02 10:14:05;;;;;;;;;;;;;;;;;;5111797;27;43523;-84
2021/12/02 10:16:33;;;;;;;4.88;1.10;;;;;;;;;;5111179;27;45062;-83
2021/12/02 10:21:39;;;;;;;4.15;1.10;;;;;;;;;;5091316;28;43665;-84
2021/12/02 10:24:08;;;;;;;5.00;1.42;;;;;;;;;;5091917;28;44959;-90
2021/12/02 10:26:40;;;;;;;2.22;1.00;;;;;;;;;;5092594;28;43885;-89
2021/12/02 10:29:20;;;;;;;2.80;1.03;;;;;;;;;;5091643;28;42657;-88
2021/12/02 10:31:48;;;;;;;1.00;0.80;;;;;;;;;;5089482;28;42917;-88
2021/12/02 10:34:17;;;;;;;3.72;0.90;;;;;;;;;;5092174;28;36373;-90
2021/12/02 10:36:45;;;;;;;1.95;0.60;;;;;;;;;;5091261;28;44305;-91
2021/12/02 10:39:22;;;;;;;4.43;1.42;;;;;;;;;;5090999;28;44080;-91
2021/12/02 10:42:05;;;;;;;2.83;0.90;;;;;;;;;;5095090;28;44699;-92
2021/12/02 10:44:35;;;;;;;2.40;0.85;;;;;;;;;;5111261;27;42983;-91
2021/12/02 10:47:02;;;;;;;3.55;0.80;;;;;;;;;;5110517;27;44065;-90
2021/12/02 10:49:33;;;;;;;1.90;0.55;;;;;;;;;;5110854;27;45675;-92
2021/12/02 10:52:02;;;;;;;1.90;0.47;;;;;;;;;;5108903;27;42968;-92
2021/12/02 10:54:33;;;;;;;1.67;0.50;;;;;;;;;;5109746;27;42849;-92
2021/12/02 10:57:06;;;;;;;1.88;0.65;;;;;;;;;;5109695;27;43936;-92
2021/12/02 10:59:33;;;;;;;4.18;0.50;;;;;;;;;;5094165;27;42509;-92
2021/12/02 11:02:05;;;;;;;3.42;0.35;;;;;;;;;;5089710;28;43838;-91
2021/12/02 11:04:42;;;;;;;0.38;0.35;;;;;;;;;;5099244;28;29353;-91
2021/12/02 11:07:11;;;;;;;1.02;0.40;;;;;;;;;;5110731;27;44929;-89
2021/12/02 11:09:39;;;;;;;1.55;0.60;;;;;;;;;;5110637;27;42614;-87
2021/12/02 11:12:08;;;;;;;4.15;0.63;;;;;;;;;;5090100;27;44920;-88
2021/12/02 11:14:35;;;;;;;2.50;0.68;;;;;;;;;;5090141;28;42056;-87
2021/12/02 11:17:06;;;;;;;1.70;0.40;;;;;;;;;;5100142;28;42933;-87
2021/12/02 11:19:34;;;;;;;1.60;0.40;;;;;;;;;;5110496;27;44105;-88
2021/12/02 11:22:04;;;;;;;3.65;0.60;;;;;;;;;;5110436;28;42379;-87
2021/12/02 11:24:32;;;;;;;0.75;0.43;;;;;;;;;;5106830;27;43924;-88
2021/12/02 11:27:06;;;;;;;2.67;0.57;;;;;;;;;;5097506;27;44965;-87
2021/12/02 11:30:05;;;;;;;0.43;0.43;;;;;;;;;;5089903;28;44680;-86
2021/12/02 11:32:31;;;;;;;2.45;0.80;;;;;;;;;;5065034;28;45040;-88
2021/12/02 11:35:12;;;;;;;3.10;0.80;;;;;;;;;;5089585;28;45131;-88
2021/12/02 11:37:41;;;;;;;3.42;0.90;;;;;;;;;;5089189;28;41845;-87
2021/12/02 11:40:10;;;;;;;0.85;0.80;;;;;;;;;;5088779;28;43502;-87
2021/12/02 11:42:38;;;;;;;3.50;1.00;;;;;;;;;;5099483;28;44702;-86
2021/12/02 11:45:06;;;;;;;2.40;0.70;;;;;;;;;;5092732;28;42506;-89
2021/12/02 11:47:33;;;;;;;2.15;1.00;;;;;;;;;;5099223;27;44823;-88
2021/12/02 11:50:00;;;;;;;2.77;1.20;;;;;;;;;;5110175;27;45488;-91
2021/12/02 11:52:27;;;;;;;4.47;1.17;;;;;;;;;;5108549;27;42897;-89
2021/12/02 11:54:56;;;;;;;1.80;0.80;;;;;;;;;;5108905;27;44265;-91
2021/12/02 11:57:23;;;;;;;3.42;1.30;;;;;;;;;;5110121;27;44999;-87
2021/12/02 11:59:49;;;;;;;1.15;0.90;;;;;;;;;;5110421;27;42958;-87
2021/12/02 12:02:16;;;;;;;1.58;1.10;;;;;;;;;;5109522;27;44077;-90
2021/12/02 12:04:57;;;;;;;4.97;1.05;;;;;;;;;;5099378;27;44984;-88
2021/12/02 12:07:37;;;;;;;2.03;1.30;;;;;;;;;;5089168;28;44133;-89
2021/12/02 12:10:21;;;;;;;4.85;1.50;;;;;;;;;;5089870;28;42635;-90
2021/12/02 12:12:50;;;;;;;2.88;1.38;;;;;;;;;;5089167;28;43905;-89
2021/12/02 12:15:30;;;;;;;2.25;1.20;;;;;;;;;;5090102;28;43921;-95
2021/12/02 12:17:57;;;;;;;2.40;1.30;;;;;;;;;;5090121;28;43669;-95
2021/12/02 12:20:42;;;;;;;4.78;1.67;;;;;;;;;;5090493;28;43898;-88
2021/12/02 12:23:41;;;;;;;4.95;1.67;;;;;;;;;;5089065;28;41974;-95
2021/12/02 12:26:08;;;;;;;3.70;1.45;;;;;;;;;;5066805;28;42169;-90
2021/12/02 12:28:55;;;;;;;2.60;1.67;;;;;;;;;;5087959;28;44861;-91
2021/12/02 12:31:21;;;;;;;4.57;1.83;;;;;;;;;;5086966;28;45655;-91
2021/12/02 12:33:48;;;;;;;5.47;1.80;;;;;;;;;;5095595;27;44681;-90
2021/12/02 12:36:33;;;;;;;5.40;1.50;;;;;;;;;;5090581;28;44915;-88
2021/12/02 12:39:16;;;;;;;1.98;1.30;;;;;;;;;;5106545;28;44980;-87
2021/12/02 12:41:44;;;;;;;1.98;1.45;;;;;;;;;;5104980;27;44979;-88
2021/12/02 12:44:13;;;;;;;2.47;2.00;;;;;;;;;;5088135;28;20057;-89
2021/12/02 12:46:52;;;;;;;3.38;1.98;;;;;;;;;;5086563;28;45024;-88
2021/12/02 12:49:19;;;;;;;2.25;1.60;;;;;;;;;;5087703;28;45159;-89
2021/12/02 12:51:55;;;;;;;4.22;1.55;;;;;;;;;;5088879;28;44993;-90
2021/12/02 12:54:24;;;;;;;6.28;1.92;;;;;;;;;;5088121;28;44934;-91
2021/12/02 12:57:01;;;;;;;2.10;1.58;;;;;;;;;;5096524;28;44956;-92
2021/12/02 12:59:28;;;;;;;8.18;2.42;;;;;;;;;;5108149;28;42875;-89
2021/12/02 13:01:55;;;;;;;9.90;2.03;;;;;;;;;;5108227;27;44032;-93
2021/12/02 13:04:25;;;;;;;8.57;2.70;;;;;;;;;;5099810;27;44878;-92
2021/12/02 13:07:00;;;;;;;2.53;1.70;;;;;;;;;;5088525;28;43249;-90
2021/12/02 13:09:44;;;;;;;2.22;1.98;;;;;;;;;;5108245;28;42749;-90
2021/12/02 13:12:17;;;;;;;5.60;2.30;;;;;;;;;;5108162;27;44631;-88
2021/12/02 13:14:45;;;;;;;6.05;2.67;;;;;;;;;;5110096;27;20492;-86
2021/12/02 13:17:31;;;;;;;4.65;2.05;;;;;;;;;;5108499;27;43444;-81
2021/12/02 13:19:58;;;;;;;7.35;2.17;;;;;;;;;;5108616;27;44476;-89
2021/12/02 13:22:25;;;;;;;6.18;2.05;;;;;;;;;;5109246;27;21260;-88
2021/12/02 13:24:51;;;;;;;4.00;1.50;;;;;;;;;;5108066;27;43217;-89
2021/12/02 13:27:21;;;;;;;6.63;2.20;;;;;;;;;;5108684;27;42560;-89
2021/12/02 13:29:47;;;;;;;5.05;1.65;;;;;;;;;;5109722;27;45230;-88
2021/12/02 13:32:14;;;;;;;7.57;1.73;;;;;;;;;;5098081;27;42941;-88
2021/12/02 13:34:44;;;;;;;7.68;1.48;;;;;;;;;;5090273;28;20055;-83
2021/12/02 13:37:13;;;;;;;8.55;1.90;;;;;;;;;;5095876;28;44921;-91
2021/12/02 13:39:42;;;;;;;8.00;1.90;;;;;;;;;;5103877;28;44080;-88
2021/12/02 13:42:08;;;;;;;;;;;;;;;;;;5106301;28;43965;-90
2021/12/02 13:44:38;;;;;;;8.35;2.00;;;;;;;;;;5106352;28;19927;-91
2021/12/02 13:47:13;;;;;;;2.95;1.80;;;;;;;;;;5107074;28;43879;-91
2021/12/02 13:49:44;;;;;;;7.43;2.28;;;;;;;;;;5106061;28;43911;-92
2021/12/02 13:54:52;;;;;;;5.78;2.28;;;;;;;;;;5107342;27;45221;-92
2021/12/02 13:57:22;;;;;;;8.07;2.70;;;;;;;;;;5107114;27;43868;-90
2021/12/02 13:59:49;;;;;;;8.77;2.63;;;;;;;;;;5106508;28;44699;-91
2021/12/02 14:02:20;;;;;;;9.17;3.03;;;;;;;;;;5107775;27;20561;-90
2021/12/02 14:04:48;;;;;;;5.95;2.70;;;;;;;;;;5108173;27;45085;-88
2021/12/02 14:07:17;;;;;;;11.20;2.72;;;;;;;;;;5107813;27;20052;-92
2021/12/02 14:09:54;;;;;;;5.60;2.13;;;;;;;;;;5104299;27;45908;-91
2021/12/02 14:12:37;;;;;;;7.22;2.60;;;;;;;;;;5107120;27;44275;-91
2021/12/02 14:15:11;;;;;;;6.35;2.80;;;;;;;;;;5093583;27;42627;-91
2021/12/02 14:17:47;;;;;;;10.85;2.80;;;;;;;;;;5089273;28;44172;-90
2021/12/02 14:20:14;;;;;;;8.80;3.30;;;;;;;;;;5090267;28;43966;-91
2021/12/02 14:22:43;;;;;;;7.47;2.60;;;;;;;;;;5090430;28;44572;-91
2021/12/02 14:25:10;;;;;;;7.20;2.75;;;;;;;;;;5090825;28;44806;-92
2021/12/02 14:27:38;;;;;;;10.40;3.13;;;;;;;;;;5106972;28;43643;-91
2021/12/02 14:30:09;;;;;;;3.90;1.90;;;;;;;;;;5110972;27;43392;-91
2021/12/02 14:32:35;;;;;;;5.22;2.30;;;;;;;;;;5110749;27;42297;-90
2021/12/02 14:35:06;;;;;;;8.57;2.45;;;;;;;;;;5109684;27;43795;-86
2021/12/02 14:37:33;;;;;;;6.60;2.13;;;;;;;;;;5108224;27;44749;-91
2021/12/02 14:40:00;;;;;;;8.93;1.55;;;;;;;;;;5094984;27;42707;-87
2021/12/02 14:42:29;;;;;;;4.90;1.30;;;;;;;;;;5098388;28;42892;-92
2021/12/02 14:44:56;;;;;;;8.88;1.40;;;;;;;;;;5110250;27;44936;-92
2021/12/02 14:47:22;;;;;;;5.22;1.25;;;;;;;;;;5111149;27;42629;-83
2021/12/02 14:49:51;;;;;;;4.85;1.15;;;;;;;;;;5110085;27;45340;-90
2021/12/02 14:52:26;;;;;;;6.10;1.42;;;;;;;;;;5110486;27;42907;-84
2021/12/02 14:55:00;;;;;;;2.58;1.00;;;;;;;;;;5109930;27;43939;-88
2021/12/02 14:57:28;;;;;;;5.72;1.10;;;;;;;;;;5110130;27;44978;-90
2021/12/02 14:59:59;;;;;;;9.18;1.02;;;;;;;;;;5109398;27;42877;-84
2021/12/02 15:02:28;;;;;;;5.63;1.40;;;;;;;;;;5098775;27;20072;-80
2021/12/02 15:04:59;;;;;;;5.88;1.42;;;;;;;;;;5100291;28;44684;-81
2021/12/02 15:07:28;;;;;;;6.28;1.23;;;;;;;;;;5107885;27;45704;-87
2021/12/02 15:09:57;;;;;;;4.13;1.15;;;;;;;;;;5105214;27;44989;-87
2021/12/02 15:12:32;;;;;;;2.60;1.00;;;;;;;;;;5109570;27;44404;-87
2021/12/02 15:14:58;;;;;;;6.88;1.52;;;;;;;;;;5108247;28;44665;-87
2021/12/02 15:17:40;;;;;;;4.05;1.33;;;;;;;;;;5109788;27;44922;-87